sensor_id;sensor_type;location;lat;lon;timestamp;pressure;altitude;pressure_sealevel;temperature;humidity
7774;BME280;3931;42.260;23.116;2023-02-01T00:01:25;95650.13;;;8.90;57.67
7774;BME280;3931;42.260;23.116;2023-02-01T00:03:51;95649.34;;;8.66;58.19
7774;BME280;3931;42.260;23.116;2023-02-01T00:06:17;95654.72;;;8.96;58.07
7774;BME280;3931;42.260;23.116;2023-02-01T00:08:43;95649.75;;;8.88;58.54
7774;BME280;3931;42.260;23.116;2023-02-01T00:11:10;95654.56;;;8.84;58.26
7774;BME280;3931;42.260;23.116;2023-02-01T00:13:39;95647.16;;;9.00;57.42
7774;BME280;3931;42.260;23.116;2023-02-01T00:16:08;95645.97;;;8.78;58.10
7774;BME280;3931;42.260;23.116;2023-02-01T00:18:35;95648.00;;;8.97;57.77
7774;BME280;3931;42.260;23.116;2023-02-01T00:21:02;95652.91;;;8.86;57.92
7774;BME280;3931;42.260;23.116;2023-02-01T00:23:30;95642.50;;;8.97;57.43
7774;BME280;3931;42.260;23.116;2023-02-01T00:26:00;95650.53;;;8.88;58.60
7774;BME280;3931;42.260;23.116;2023-02-01T00:28:26;95650.34;;;8.99;57.77
7774;BME280;3931;42.260;23.116;2023-02-01T00:30:56;95653.53;;;8.74;57.96
7774;BME280;3931;42.260;23.116;2023-02-01T00:33:22;95653.44;;;10.51;54.05
7774;BME280;3931;42.260;23.116;2023-02-01T00:35:49;95650.63;;;10.83;52.96
7774;BME280;3931;42.260;23.116;2023-02-01T00:38:15;95655.25;;;10.73;53.03
7774;BME280;3931;42.260;23.116;2023-02-01T00:40:41;95653.06;;;10.81;52.68
7774;BME280;3931;42.260;23.116;2023-02-01T00:43:07;95649.22;;;10.10;51.88
7774;BME280;3931;42.260;23.116;2023-02-01T00:45:33;95647.69;;;9.15;56.24
7774;BME280;3931;42.260;23.116;2023-02-01T00:47:59;95646.66;;;8.86;57.69
7774;BME280;3931;42.260;23.116;2023-02-01T00:50:25;95645.66;;;8.96;58.18
7774;BME280;3931;42.260;23.116;2023-02-01T00:52:51;95641.97;;;8.82;58.91
7774;BME280;3931;42.260;23.116;2023-02-01T00:55:17;95642.16;;;8.72;60.09
7774;BME280;3931;42.260;23.116;2023-02-01T00:57:43;95639.09;;;8.90;59.18
7774;BME280;3931;42.260;23.116;2023-02-01T01:00:10;95638.97;;;8.73;60.38
7774;BME280;3931;42.260;23.116;2023-02-01T01:02:37;95635.09;;;8.91;59.39
7774;BME280;3931;42.260;23.116;2023-02-01T01:05:03;95627.47;;;8.78;60.43
7774;BME280;3931;42.260;23.116;2023-02-01T01:07:29;95624.97;;;8.84;59.25
7774;BME280;3931;42.260;23.116;2023-02-01T01:09:56;95626.41;;;8.49;60.43
7774;BME280;3931;42.260;23.116;2023-02-01T01:12:22;95626.25;;;8.79;60.10
7774;BME280;3931;42.260;23.116;2023-02-01T01:14:48;95624.22;;;8.60;59.90
7774;BME280;3931;42.260;23.116;2023-02-01T01:17:14;95632.94;;;8.59;60.19
7774;BME280;3931;42.260;23.116;2023-02-01T01:19:40;95630.78;;;8.70;60.18
7774;BME280;3931;42.260;23.116;2023-02-01T01:22:06;95620.22;;;8.42;61.45
7774;BME280;3931;42.260;23.116;2023-02-01T01:24:32;95618.06;;;8.03;61.49
7774;BME280;3931;42.260;23.116;2023-02-01T01:26:59;95632.47;;;8.14;61.64
7774;BME280;3931;42.260;23.116;2023-02-01T01:29:25;95628.41;;;7.95;61.23
7774;BME280;3931;42.260;23.116;2023-02-01T01:31:51;95633.81;;;8.02;59.78
7774;BME280;3931;42.260;23.116;2023-02-01T01:34:17;95637.38;;;7.73;59.71
7774;BME280;3931;42.260;23.116;2023-02-01T01:36:43;95637.91;;;7.64;60.71
7774;BME280;3931;42.260;23.116;2023-02-01T01:39:09;95635.94;;;8.18;59.55
7774;BME280;3931;42.260;23.116;2023-02-01T01:41:35;95632.09;;;8.39;59.02
7774;BME280;3931;42.260;23.116;2023-02-01T01:44:03;95636.84;;;8.35;58.82
7774;BME280;3931;42.260;23.116;2023-02-01T01:46:31;95640.53;;;8.51;58.62
7774;BME280;3931;42.260;23.116;2023-02-01T01:49:03;95636.44;;;8.59;57.92
7774;BME280;3931;42.260;23.116;2023-02-01T01:51:32;95644.72;;;8.59;57.93
7774;BME280;3931;42.260;23.116;2023-02-01T01:54:04;95643.47;;;8.41;58.57
7774;BME280;3931;42.260;23.116;2023-02-01T01:56:33;95644.63;;;8.17;60.66
7774;BME280;3931;42.260;23.116;2023-02-01T01:59:02;95645.44;;;8.14;61.33
7774;BME280;3931;42.260;23.116;2023-02-01T02:01:28;95642.69;;;8.14;61.33
7774;BME280;3931;42.260;23.116;2023-02-01T02:03:55;95641.44;;;8.18;61.37
7774;BME280;3931;42.260;23.116;2023-02-01T02:06:31;95631.97;;;7.92;63.76
7774;BME280;3931;42.260;23.116;2023-02-01T02:08:59;95625.97;;;7.74;64.03
7774;BME280;3931;42.260;23.116;2023-02-01T02:11:25;95627.41;;;7.56;65.52
7774;BME280;3931;42.260;23.116;2023-02-01T02:13:52;95637.44;;;7.69;65.63
7774;BME280;3931;42.260;23.116;2023-02-01T02:16:47;95637.75;;;7.75;63.64
7774;BME280;3931;42.260;23.116;2023-02-01T02:19:45;95634.50;;;7.53;65.28
7774;BME280;3931;42.260;23.116;2023-02-01T02:22:40;95644.53;;;7.36;65.53
7774;BME280;3931;42.260;23.116;2023-02-01T02:28:18;95642.72;;;7.26;64.99
7774;BME280;3931;42.260;23.116;2023-02-01T02:31:04;95633.59;;;6.62;69.95
7774;BME280;3931;42.260;23.116;2023-02-01T02:33:50;95625.88;;;6.87;70.52
7774;BME280;3931;42.260;23.116;2023-02-01T02:36:26;95630.97;;;6.85;70.32
7774;BME280;3931;42.260;23.116;2023-02-01T02:39:05;95638.31;;;6.17;73.57
7774;BME280;3931;42.260;23.116;2023-02-01T02:41:41;95618.88;;;6.79;71.71
7774;BME280;3931;42.260;23.116;2023-02-01T02:44:34;95635.84;;;6.30;75.56
7774;BME280;3931;42.260;23.116;2023-02-01T02:47:24;95636.03;;;6.05;76.90
7774;BME280;3931;42.260;23.116;2023-02-01T02:50:03;95643.00;;;6.17;76.42
7774;BME280;3931;42.260;23.116;2023-02-01T02:52:48;95649.69;;;6.16;78.67
7774;BME280;3931;42.260;23.116;2023-02-01T02:55:36;95646.91;;;5.57;82.15
7774;BME280;3931;42.260;23.116;2023-02-01T02:58:05;95641.66;;;5.87;79.93
7774;BME280;3931;42.260;23.116;2023-02-01T03:00:51;95647.47;;;6.00;78.10
7774;BME280;3931;42.260;23.116;2023-02-01T03:03:37;95653.28;;;6.09;77.77
7774;BME280;3931;42.260;23.116;2023-02-01T03:06:23;95658.94;;;5.74;78.91
7774;BME280;3931;42.260;23.116;2023-02-01T03:08:49;95657.28;;;5.94;79.10
7774;BME280;3931;42.260;23.116;2023-02-01T03:11:19;95668.03;;;5.64;79.47
7774;BME280;3931;42.260;23.116;2023-02-01T03:13:50;95675.81;;;6.34;78.46
7774;BME280;3931;42.260;23.116;2023-02-01T03:16:20;95687.41;;;6.08;77.47
7774;BME280;3931;42.260;23.116;2023-02-01T03:18:51;95690.72;;;6.37;76.42
7774;BME280;3931;42.260;23.116;2023-02-01T03:21:23;95699.13;;;6.12;77.19
7774;BME280;3931;42.260;23.116;2023-02-01T03:23:52;95693.47;;;6.37;75.83
7774;BME280;3931;42.260;23.116;2023-02-01T03:26:20;95703.38;;;6.24;75.65
7774;BME280;3931;42.260;23.116;2023-02-01T03:28:51;95703.75;;;6.26;76.43
7774;BME280;3931;42.260;23.116;2023-02-01T03:31:20;95694.94;;;5.97;76.49
7774;BME280;3931;42.260;23.116;2023-02-01T03:33:46;95710.69;;;5.79;78.25
7774;BME280;3931;42.260;23.116;2023-02-01T03:36:17;95707.97;;;5.75;77.46
7774;BME280;3931;42.260;23.116;2023-02-01T03:38:54;95711.38;;;6.01;75.34
7774;BME280;3931;42.260;23.116;2023-02-01T03:41:27;95714.47;;;6.10;74.22
7774;BME280;3931;42.260;23.116;2023-02-01T03:43:57;95705.88;;;6.04;74.36
7774;BME280;3931;42.260;23.116;2023-02-01T03:46:29;95706.44;;;5.71;75.30
7774;BME280;3931;42.260;23.116;2023-02-01T03:49:00;95712.88;;;6.16;73.31
7774;BME280;3931;42.260;23.116;2023-02-01T03:51:28;95704.44;;;5.75;75.32
7774;BME280;3931;42.260;23.116;2023-02-01T03:53:56;95697.25;;;6.02;75.54
7774;BME280;3931;42.260;23.116;2023-02-01T03:56:24;95695.47;;;6.33;74.01
7774;BME280;3931;42.260;23.116;2023-02-01T03:58:52;95694.78;;;6.18;71.86
7774;BME280;3931;42.260;23.116;2023-02-01T04:01:25;95677.94;;;6.64;68.36
7774;BME280;3931;42.260;23.116;2023-02-01T04:03:52;95665.16;;;6.47;66.57
7774;BME280;3931;42.260;23.116;2023-02-01T04:06:18;95667.22;;;6.77;61.91
7774;BME280;3931;42.260;23.116;2023-02-01T04:08:44;95674.06;;;6.58;59.87
7774;BME280;3931;42.260;23.116;2023-02-01T04:11:10;95668.00;;;7.14;58.49
7774;BME280;3931;42.260;23.116;2023-02-01T04:13:36;95671.63;;;6.19;62.04
7774;BME280;3931;42.260;23.116;2023-02-01T04:16:03;95670.16;;;6.55;66.15
7774;BME280;3931;42.260;23.116;2023-02-01T04:18:29;95670.19;;;6.96;63.52
7774;BME280;3931;42.260;23.116;2023-02-01T04:20:55;95669.38;;;6.55;65.70
7774;BME280;3931;42.260;23.116;2023-02-01T04:23:21;95656.81;;;6.95;66.40
7774;BME280;3931;42.260;23.116;2023-02-01T04:25:47;95665.66;;;6.31;67.44
7774;BME280;3931;42.260;23.116;2023-02-01T04:28:14;95669.88;;;7.21;65.62
7774;BME280;3931;42.260;23.116;2023-02-01T04:30:40;95679.00;;;6.33;66.32
7774;BME280;3931;42.260;23.116;2023-02-01T04:33:06;95682.00;;;6.45;65.16
7774;BME280;3931;42.260;23.116;2023-02-01T04:35:33;95672.19;;;6.48;64.67
7774;BME280;3931;42.260;23.116;2023-02-01T04:37:59;95678.44;;;6.93;63.78
7774;BME280;3931;42.260;23.116;2023-02-01T04:40:25;95697.13;;;6.71;62.32
7774;BME280;3931;42.260;23.116;2023-02-01T04:42:51;95687.56;;;6.38;61.35
7774;BME280;3931;42.260;23.116;2023-02-01T04:45:18;95682.66;;;6.16;61.65
7774;BME280;3931;42.260;23.116;2023-02-01T04:47:44;95683.06;;;6.62;61.64
7774;BME280;3931;42.260;23.116;2023-02-01T04:50:10;95691.75;;;6.57;60.57
7774;BME280;3931;42.260;23.116;2023-02-01T04:52:36;95699.19;;;6.09;66.15
7774;BME280;3931;42.260;23.116;2023-02-01T04:55:03;95698.44;;;6.52;65.26
7774;BME280;3931;42.260;23.116;2023-02-01T04:57:29;95677.09;;;7.08;62.08
7774;BME280;3931;42.260;23.116;2023-02-01T04:59:55;95679.03;;;6.74;60.16
7774;BME280;3931;42.260;23.116;2023-02-01T05:02:22;95676.66;;;6.76;60.81
7774;BME280;3931;42.260;23.116;2023-02-01T05:04:48;95690.56;;;6.58;61.23
7774;BME280;3931;42.260;23.116;2023-02-01T05:07:15;95691.69;;;6.64;62.33
7774;BME280;3931;42.260;23.116;2023-02-01T05:09:41;95702.59;;;6.27;62.35
7774;BME280;3931;42.260;23.116;2023-02-01T05:12:08;95691.38;;;6.96;60.53
7774;BME280;3931;42.260;23.116;2023-02-01T05:14:53;95693.66;;;7.01;61.22
7774;BME280;3931;42.260;23.116;2023-02-01T05:17:19;95704.34;;;7.32;61.45
7774;BME280;3931;42.260;23.116;2023-02-01T05:19:45;95695.44;;;7.21;60.56
7774;BME280;3931;42.260;23.116;2023-02-01T05:22:11;95697.16;;;7.42;61.15
7774;BME280;3931;42.260;23.116;2023-02-01T05:24:38;95709.16;;;6.84;61.96
7774;BME280;3931;42.260;23.116;2023-02-01T05:27:04;95715.81;;;6.87;62.51
7774;BME280;3931;42.260;23.116;2023-02-01T05:29:30;95719.91;;;6.72;62.71
7774;BME280;3931;42.260;23.116;2023-02-01T05:31:56;95714.38;;;7.12;62.02
7774;BME280;3931;42.260;23.116;2023-02-01T05:34:22;95707.56;;;7.27;62.33
7774;BME280;3931;42.260;23.116;2023-02-01T05:36:49;95716.59;;;7.62;59.90
7774;BME280;3931;42.260;23.116;2023-02-01T05:39:15;95731.97;;;6.85;62.92
7774;BME280;3931;42.260;23.116;2023-02-01T05:41:41;95728.88;;;7.54;61.26
7774;BME280;3931;42.260;23.116;2023-02-01T05:44:07;95733.50;;;7.94;58.43
7774;BME280;3931;42.260;23.116;2023-02-01T05:46:33;95731.06;;;7.69;58.36
7774;BME280;3931;42.260;23.116;2023-02-01T05:48:59;95735.94;;;7.55;59.60
7774;BME280;3931;42.260;23.116;2023-02-01T05:51:25;95731.19;;;7.21;59.05
7774;BME280;3931;42.260;23.116;2023-02-01T05:53:52;95726.41;;;7.29;60.08
7774;BME280;3931;42.260;23.116;2023-02-01T05:56:18;95722.69;;;7.09;60.10
7774;BME280;3931;42.260;23.116;2023-02-01T05:58:44;95733.72;;;7.76;58.42
7774;BME280;3931;42.260;23.116;2023-02-01T06:01:10;95748.09;;;8.21;56.84
7774;BME280;3931;42.260;23.116;2023-02-01T06:03:36;95753.59;;;8.21;56.65
7774;BME280;3931;42.260;23.116;2023-02-01T06:06:03;95759.25;;;8.67;55.20
7774;BME280;3931;42.260;23.116;2023-02-01T06:08:29;95757.03;;;8.32;55.94
7774;BME280;3931;42.260;23.116;2023-02-01T06:10:59;95752.16;;;7.79;57.36
7774;BME280;3931;42.260;23.116;2023-02-01T06:13:26;95749.50;;;8.02;56.11
7774;BME280;3931;42.260;23.116;2023-02-01T06:15:52;95744.69;;;7.80;57.16
7774;BME280;3931;42.260;23.116;2023-02-01T06:18:18;95753.34;;;8.12;56.60
7774;BME280;3931;42.260;23.116;2023-02-01T06:20:44;95747.06;;;7.78;56.63
7774;BME280;3931;42.260;23.116;2023-02-01T06:23:10;95745.41;;;7.84;56.34
7774;BME280;3931;42.260;23.116;2023-02-01T06:25:36;95740.16;;;7.96;56.69
7774;BME280;3931;42.260;23.116;2023-02-01T06:28:04;95747.59;;;7.66;58.04
7774;BME280;3931;42.260;23.116;2023-02-01T06:30:31;95743.41;;;8.18;57.55
7774;BME280;3931;42.260;23.116;2023-02-01T06:32:57;95744.25;;;8.68;56.01
7774;BME280;3931;42.260;23.116;2023-02-01T06:35:23;95748.69;;;8.05;57.14
7774;BME280;3931;42.260;23.116;2023-02-01T06:37:49;95745.59;;;8.00;57.74
7774;BME280;3931;42.260;23.116;2023-02-01T06:40:16;95747.63;;;8.26;56.87
7774;BME280;3931;42.260;23.116;2023-02-01T06:42:42;95743.25;;;7.68;57.25
7774;BME280;3931;42.260;23.116;2023-02-01T06:45:10;95740.50;;;7.68;57.02
7774;BME280;3931;42.260;23.116;2023-02-01T06:47:36;95750.13;;;8.44;55.10
7774;BME280;3931;42.260;23.116;2023-02-01T06:50:03;95749.41;;;8.40;54.59
7774;BME280;3931;42.260;23.116;2023-02-01T06:52:29;95740.25;;;8.46;55.21
7774;BME280;3931;42.260;23.116;2023-02-01T06:54:55;95748.78;;;7.98;56.69
7774;BME280;3931;42.260;23.116;2023-02-01T06:57:21;95747.53;;;8.03;57.51
7774;BME280;3931;42.260;23.116;2023-02-01T06:59:47;95744.91;;;7.92;57.41
7774;BME280;3931;42.260;23.116;2023-02-01T07:02:14;95752.53;;;8.42;56.82
7774;BME280;3931;42.260;23.116;2023-02-01T07:04:40;95742.19;;;8.49;57.53
7774;BME280;3931;42.260;23.116;2023-02-01T07:07:06;95751.06;;;8.60;56.83
7774;BME280;3931;42.260;23.116;2023-02-01T07:09:32;95758.16;;;7.74;59.11
7774;BME280;3931;42.260;23.116;2023-02-01T07:11:58;95761.72;;;7.68;59.87
7774;BME280;3931;42.260;23.116;2023-02-01T07:14:24;95766.50;;;7.97;58.88
7774;BME280;3931;42.260;23.116;2023-02-01T07:16:50;95774.94;;;8.44;57.38
7774;BME280;3931;42.260;23.116;2023-02-01T07:19:17;95782.22;;;8.57;56.97
7774;BME280;3931;42.260;23.116;2023-02-01T07:21:43;95782.09;;;8.68;56.22
7774;BME280;3931;42.260;23.116;2023-02-01T07:24:09;95788.72;;;8.44;57.01
7774;BME280;3931;42.260;23.116;2023-02-01T07:26:35;95785.88;;;8.51;56.03
7774;BME280;3931;42.260;23.116;2023-02-01T07:29:01;95794.66;;;8.12;57.35
7774;BME280;3931;42.260;23.116;2023-02-01T07:31:27;95806.66;;;7.95;58.85
7774;BME280;3931;42.260;23.116;2023-02-01T07:33:54;95808.81;;;8.44;57.10
7774;BME280;3931;42.260;23.116;2023-02-01T07:36:22;95811.75;;;8.60;56.77
7774;BME280;3931;42.260;23.116;2023-02-01T07:38:48;95800.09;;;8.49;56.54
7774;BME280;3931;42.260;23.116;2023-02-01T07:41:15;95803.53;;;8.27;57.77
7774;BME280;3931;42.260;23.116;2023-02-01T07:43:41;95811.38;;;8.85;56.38
7774;BME280;3931;42.260;23.116;2023-02-01T07:46:07;95815.22;;;8.38;57.33
7774;BME280;3931;42.260;23.116;2023-02-01T07:48:35;95814.13;;;8.85;56.22
7774;BME280;3931;42.260;23.116;2023-02-01T07:51:02;95811.41;;;8.81;55.71
7774;BME280;3931;42.260;23.116;2023-02-01T07:53:31;95817.97;;;8.91;56.20
7774;BME280;3931;42.260;23.116;2023-02-01T07:55:57;95823.28;;;8.52;57.01
7774;BME280;3931;42.260;23.116;2023-02-01T07:58:24;95829.91;;;8.58;57.03
7774;BME280;3931;42.260;23.116;2023-02-01T08:00:51;95824.75;;;8.87;57.32
7774;BME280;3931;42.260;23.116;2023-02-01T08:03:35;95809.19;;;9.23;55.69
7774;BME280;3931;42.260;23.116;2023-02-01T08:06:01;95827.19;;;9.31;55.70
7774;BME280;3931;42.260;23.116;2023-02-01T08:08:27;95831.88;;;9.34;54.86
7774;BME280;3931;42.260;23.116;2023-02-01T08:10:57;95833.91;;;9.30;55.21
7774;BME280;3931;42.260;23.116;2023-02-01T08:13:23;95828.41;;;9.30;54.96
7774;BME280;3931;42.260;23.116;2023-02-01T08:15:49;95834.69;;;9.53;54.58
7774;BME280;3931;42.260;23.116;2023-02-01T08:18:15;95834.41;;;9.91;53.67
7774;BME280;3931;42.260;23.116;2023-02-01T08:20:43;95832.94;;;9.40;53.84
7774;BME280;3931;42.260;23.116;2023-02-01T08:23:11;95838.72;;;9.49;54.00
7774;BME280;3931;42.260;23.116;2023-02-01T08:25:37;95848.13;;;9.51;53.33
7774;BME280;3931;42.260;23.116;2023-02-01T08:28:04;95843.53;;;9.88;53.12
7774;BME280;3931;42.260;23.116;2023-02-01T08:30:31;95841.22;;;10.06;53.29
7774;BME280;3931;42.260;23.116;2023-02-01T08:32:57;95850.84;;;9.98;53.06
7774;BME280;3931;42.260;23.116;2023-02-01T08:35:23;95852.50;;;9.95;54.07
7774;BME280;3931;42.260;23.116;2023-02-01T08:37:49;95839.19;;;9.87;53.71
7774;BME280;3931;42.260;23.116;2023-02-01T08:40:16;95838.72;;;9.92;54.00
7774;BME280;3931;42.260;23.116;2023-02-01T08:42:42;95845.97;;;10.05;54.03
7774;BME280;3931;42.260;23.116;2023-02-01T08:45:18;95849.84;;;9.88;54.82
7774;BME280;3931;42.260;23.116;2023-02-01T08:47:45;95845.59;;;9.61;54.63
7774;BME280;3931;42.260;23.116;2023-02-01T08:50:13;95851.91;;;9.15;56.74
7774;BME280;3931;42.260;23.116;2023-02-01T08:52:39;95849.41;;;9.47;55.46
7774;BME280;3931;42.260;23.116;2023-02-01T08:55:06;95845.44;;;9.48;55.81
7774;BME280;3931;42.260;23.116;2023-02-01T08:57:32;95842.13;;;9.33;56.11
7774;BME280;3931;42.260;23.116;2023-02-01T08:59:58;95847.94;;;9.16;56.08
7774;BME280;3931;42.260;23.116;2023-02-01T09:02:26;95849.16;;;9.38;55.46
7774;BME280;3931;42.260;23.116;2023-02-01T09:04:52;95854.63;;;8.35;59.13
7774;BME280;3931;42.260;23.116;2023-02-01T09:07:18;95846.81;;;8.60;60.74
7774;BME280;3931;42.260;23.116;2023-02-01T09:09:45;95847.06;;;8.96;59.58
7774;BME280;3931;42.260;23.116;2023-02-01T09:12:11;95838.34;;;9.01;59.41
7774;BME280;3931;42.260;23.116;2023-02-01T09:14:37;95843.41;;;9.02;59.42
7774;BME280;3931;42.260;23.116;2023-02-01T09:17:03;95845.59;;;9.37;58.43
7774;BME280;3931;42.260;23.116;2023-02-01T09:19:31;95845.69;;;9.57;57.84
7774;BME280;3931;42.260;23.116;2023-02-01T09:21:57;95852.59;;;8.69;58.48
7774;BME280;3931;42.260;23.116;2023-02-01T09:24:23;95844.53;;;9.08;58.49
7774;BME280;3931;42.260;23.116;2023-02-01T09:26:50;95833.00;;;9.13;59.31
7774;BME280;3931;42.260;23.116;2023-02-01T09:29:16;95831.50;;;9.32;58.05
7774;BME280;3931;42.260;23.116;2023-02-01T09:31:42;95824.72;;;9.60;57.86
7774;BME280;3931;42.260;23.116;2023-02-01T09:34:08;95823.75;;;9.70;57.01
7774;BME280;3931;42.260;23.116;2023-02-01T09:36:35;95830.56;;;10.04;56.57
7774;BME280;3931;42.260;23.116;2023-02-01T09:39:01;95827.28;;;9.70;56.96
7774;BME280;3931;42.260;23.116;2023-02-01T09:41:35;95824.75;;;9.79;56.43
7774;BME280;3931;42.260;23.116;2023-02-01T09:44:11;95829.34;;;9.66;55.91
7774;BME280;3931;42.260;23.116;2023-02-01T09:46:40;95815.06;;;9.91;55.43
7774;BME280;3931;42.260;23.116;2023-02-01T09:49:12;95810.63;;;10.16;54.96
7774;BME280;3931;42.260;23.116;2023-02-01T09:51:45;95815.41;;;9.93;54.85
7774;BME280;3931;42.260;23.116;2023-02-01T09:54:14;95815.38;;;10.16;54.80
7774;BME280;3931;42.260;23.116;2023-02-01T09:56:45;95808.56;;;10.20;54.48
7774;BME280;3931;42.260;23.116;2023-02-01T09:59:23;95802.44;;;11.00;52.17
7774;BME280;3931;42.260;23.116;2023-02-01T10:01:52;95803.13;;;11.21;50.84
7774;BME280;3931;42.260;23.116;2023-02-01T10:04:18;95803.38;;;10.94;51.88
7774;BME280;3931;42.260;23.116;2023-02-01T10:06:57;95797.50;;;11.24;51.50
7774;BME280;3931;42.260;23.116;2023-02-01T10:09:40;95805.63;;;11.47;50.70
7774;BME280;3931;42.260;23.116;2023-02-01T10:12:42;95800.19;;;10.95;50.63
7774;BME280;3931;42.260;23.116;2023-02-01T10:15:22;95797.34;;;11.31;50.69
7774;BME280;3931;42.260;23.116;2023-02-01T10:20:51;95799.47;;;9.15;53.81
7774;BME280;3931;42.260;23.116;2023-02-01T10:23:43;95794.13;;;8.54;55.53
7774;BME280;3931;42.260;23.116;2023-02-01T10:26:18;95799.19;;;10.34;52.05
7774;BME280;3931;42.260;23.116;2023-02-01T10:28:49;95797.13;;;10.58;51.01
7774;BME280;3931;42.260;23.116;2023-02-01T10:31:16;95793.72;;;11.02;50.19
7774;BME280;3931;42.260;23.116;2023-02-01T10:33:45;95786.88;;;10.90;50.27
7774;BME280;3931;42.260;23.116;2023-02-01T10:36:15;95783.72;;;10.72;50.55
7774;BME280;3931;42.260;23.116;2023-02-01T10:38:43;95781.94;;;11.14;49.62
7774;BME280;3931;42.260;23.116;2023-02-01T10:41:12;95776.31;;;11.02;48.81
7774;BME280;3931;42.260;23.116;2023-02-01T10:43:40;95786.84;;;11.55;48.46
7774;BME280;3931;42.260;23.116;2023-02-01T10:46:07;95780.88;;;11.85;47.56
7774;BME280;3931;42.260;23.116;2023-02-01T10:48:33;95778.34;;;11.78;47.96
7774;BME280;3931;42.260;23.116;2023-02-01T10:51:02;95769.94;;;11.49;47.71
7774;BME280;3931;42.260;23.116;2023-02-01T10:53:35;95761.22;;;11.96;47.09
7774;BME280;3931;42.260;23.116;2023-02-01T10:56:07;95759.06;;;11.42;48.25
7774;BME280;3931;42.260;23.116;2023-02-01T10:58:36;95760.78;;;11.68;48.10
7774;BME280;3931;42.260;23.116;2023-02-01T11:01:04;95757.00;;;12.04;47.50
7774;BME280;3931;42.260;23.116;2023-02-01T11:03:34;95754.41;;;11.84;47.90
7774;BME280;3931;42.260;23.116;2023-02-01T11:06:08;95741.50;;;12.06;47.15
7774;BME280;3931;42.260;23.116;2023-02-01T11:08:42;95747.16;;;12.03;47.14
7774;BME280;3931;42.260;23.116;2023-02-01T11:11:10;95751.44;;;12.70;45.10
7774;BME280;3931;42.260;23.116;2023-02-01T11:13:39;95750.56;;;13.11;44.40
7774;BME280;3931;42.260;23.116;2023-02-01T11:16:06;95747.22;;;13.16;44.69
7774;BME280;3931;42.260;23.116;2023-02-01T11:18:36;95745.44;;;12.84;45.16
7774;BME280;3931;42.260;23.116;2023-02-01T11:21:04;95743.75;;;12.99;45.35
7774;BME280;3931;42.260;23.116;2023-02-01T11:23:31;95755.81;;;12.05;46.40
7774;BME280;3931;42.260;23.116;2023-02-01T11:26:00;95745.22;;;12.54;45.21
7774;BME280;3931;42.260;23.116;2023-02-01T11:28:31;95746.66;;;12.45;43.89
7774;BME280;3931;42.260;23.116;2023-02-01T11:31:00;95737.50;;;11.79;44.21
7774;BME280;3931;42.260;23.116;2023-02-01T11:33:30;95737.25;;;12.02;44.21
7774;BME280;3931;42.260;23.116;2023-02-01T11:36:01;95736.94;;;11.71;45.17
7774;BME280;3931;42.260;23.116;2023-02-01T11:38:33;95734.06;;;11.75;46.02
7774;BME280;3931;42.260;23.116;2023-02-01T11:41:12;95736.88;;;10.97;45.90
7774;BME280;3931;42.260;23.116;2023-02-01T11:43:50;95743.56;;;11.45;45.40
7774;BME280;3931;42.260;23.116;2023-02-01T11:46:18;95747.50;;;11.31;45.98
7774;BME280;3931;42.260;23.116;2023-02-01T11:48:50;95753.03;;;10.99;46.50
7774;BME280;3931;42.260;23.116;2023-02-01T11:51:25;95753.19;;;11.40;45.93
7774;BME280;3931;42.260;23.116;2023-02-01T11:54:05;95748.25;;;11.32;45.11
7774;BME280;3931;42.260;23.116;2023-02-01T11:56:37;95749.25;;;11.09;46.19
7774;BME280;3931;42.260;23.116;2023-02-01T11:59:27;95752.25;;;11.31;45.11
7774;BME280;3931;42.260;23.116;2023-02-01T12:02:11;95745.91;;;12.45;44.29
7774;BME280;3931;42.260;23.116;2023-02-01T12:05:15;95730.94;;;13.05;42.66
7774;BME280;3931;42.260;23.116;2023-02-01T12:07:56;95731.22;;;14.10;40.56
7774;BME280;3931;42.260;23.116;2023-02-01T12:10:35;95708.88;;;14.23;40.36
7774;BME280;3931;42.260;23.116;2023-02-01T12:13:13;95691.00;;;14.33;39.65
7774;BME280;3931;42.260;23.116;2023-02-01T12:15:48;95680.38;;;13.88;39.86
7774;BME280;3931;42.260;23.116;2023-02-01T12:18:36;95681.06;;;14.53;39.71
7774;BME280;3931;42.260;23.116;2023-02-01T12:21:22;95669.59;;;14.21;39.88
7774;BME280;3931;42.260;23.116;2023-02-01T12:24:07;95673.53;;;15.21;38.70
7774;BME280;3931;42.260;23.116;2023-02-01T12:26:50;95657.78;;;15.81;37.58
7774;BME280;3931;42.260;23.116;2023-02-01T12:29:35;95666.09;;;15.36;37.75
7774;BME280;3931;42.260;23.116;2023-02-01T12:32:21;95658.47;;;14.21;38.84
7774;BME280;3931;42.260;23.116;2023-02-01T12:35:10;95660.47;;;14.51;39.06
7774;BME280;3931;42.260;23.116;2023-02-01T12:37:48;95665.97;;;14.33;38.79
7774;BME280;3931;42.260;23.116;2023-02-01T12:40:28;95658.47;;;14.51;39.04
7774;BME280;3931;42.260;23.116;2023-02-01T12:43:02;95664.94;;;14.39;38.51
7774;BME280;3931;42.260;23.116;2023-02-01T12:45:33;95666.16;;;14.38;38.74
7774;BME280;3931;42.260;23.116;2023-02-01T12:48:17;95661.19;;;15.67;37.17
7774;BME280;3931;42.260;23.116;2023-02-01T12:50:47;95655.41;;;15.25;36.96
7774;BME280;3931;42.260;23.116;2023-02-01T12:53:19;95652.97;;;15.91;37.59
7774;BME280;3931;42.260;23.116;2023-02-01T12:55:52;95655.16;;;15.51;37.39
7774;BME280;3931;42.260;23.116;2023-02-01T12:58:22;95666.00;;;13.89;38.57
7774;BME280;3931;42.260;23.116;2023-02-01T13:00:52;95657.84;;;14.96;38.84
7774;BME280;3931;42.260;23.116;2023-02-01T13:03:33;95662.50;;;14.29;38.11
7774;BME280;3931;42.260;23.116;2023-02-01T13:06:04;95656.06;;;15.48;37.45
7774;BME280;3931;42.260;23.116;2023-02-01T13:08:39;95661.19;;;15.58;37.15
7774;BME280;3931;42.260;23.116;2023-02-01T13:11:11;95645.94;;;15.14;37.00
7774;BME280;3931;42.260;23.116;2023-02-01T13:13:45;95651.19;;;15.03;37.16
7774;BME280;3931;42.260;23.116;2023-02-01T13:16:15;95644.34;;;14.77;36.91
7774;BME280;3931;42.260;23.116;2023-02-01T13:18:46;95637.28;;;15.21;36.71
7774;BME280;3931;42.260;23.116;2023-02-01T13:21:18;95642.56;;;15.37;36.63
7774;BME280;3931;42.260;23.116;2023-02-01T13:23:47;95638.41;;;15.78;36.79
7774;BME280;3931;42.260;23.116;2023-02-01T13:26:14;95633.28;;;15.67;37.34
7774;BME280;3931;42.260;23.116;2023-02-01T13:28:44;95635.06;;;16.16;36.00
7774;BME280;3931;42.260;23.116;2023-02-01T13:31:28;95630.91;;;16.11;36.67
7774;BME280;3931;42.260;23.116;2023-02-01T13:34:38;95640.53;;;15.92;36.54
7774;BME280;3931;42.260;23.116;2023-02-01T13:37:21;95627.75;;;16.69;34.93
7774;BME280;3931;42.260;23.116;2023-02-01T13:39:59;95635.50;;;17.21;34.92
7774;BME280;3931;42.260;23.116;2023-02-01T13:42:34;95647.84;;;15.26;36.49